Time;durP1;ratioP1;P1;durP2;ratioP2;P2;SDS_P1;SDS_P2;PMS_P1;PMS_P2;Temp;Humidity;BMP_temperature;BMP_pressure;BME280_temperature;BME280_humidity;BME280_pressure;Samples;Min_cycle;Max_cycle;Signal;HPM_P1;HPM_P2
2021/10/06 09:09:52;;;;;;;8.73;2.20;;;;;;;;;;6001705;23;20021;-82
2021/10/06 15:08:16;;;;;;;3.75;1.10;;;;;;;;;;4996366;23;20057;-92
2021/10/06 15:10:43;;;;;;;4.05;0.90;;;;;;;;;;4938644;29;20140;-94
2021/10/06 15:13:09;;;;;;;4.15;0.95;;;;;;;;;;4935387;29;20451;-92
2021/10/06 15:15:35;;;;;;;3.30;1.00;;;;;;;;;;4938294;29;20035;-93
2021/10/06 15:18:04;;;;;;;5.30;1.15;;;;;;;;;;4937818;28;20042;-93
2021/10/06 15:20:31;;;;;;;3.78;0.95;;;;;;;;;;4927927;29;20415;-90
2021/10/06 15:22:57;;;;;;;3.45;1.08;;;;;;;;;;4919091;29;20129;-91
2021/10/06 15:25:22;;;;;;;3.65;0.82;;;;;;;;;;4937660;29;20050;-92
2021/10/06 15:27:48;;;;;;;2.72;1.23;;;;;;;;;;4955354;28;20546;-91
2021/10/06 15:30:13;;;;;;;2.33;1.08;;;;;;;;;;4952971;29;20491;-91
2021/10/06 15:32:42;;;;;;;5.10;1.42;;;;;;;;;;4937630;29;20039;-91
2021/10/06 15:35:10;;;;;;;3.17;1.65;;;;;;;;;;4936355;28;20121;-91
2021/10/06 15:37:36;;;;;;;3.55;1.50;;;;;;;;;;4944080;29;20043;-92
2021/10/06 15:40:05;;;;;;;3.75;1.40;;;;;;;;;;4935349;29;20027;-90
2021/10/06 15:42:31;;;;;;;2.97;0.98;;;;;;;;;;4932193;29;20035;-91
2021/10/06 15:44:56;;;;;;;3.42;1.08;;;;;;;;;;4934179;29;20089;-91
2021/10/06 15:47:23;;;;;;;4.35;1.30;;;;;;;;;;4919441;29;20043;-90
2021/10/06 15:49:49;;;;;;;4.35;1.50;;;;;;;;;;4936992;29;20047;-91
2021/10/06 15:52:14;;;;;;;3.42;1.40;;;;;;;;;;4936354;29;20459;-90
2021/10/06 15:54:40;;;;;;;3.80;1.15;;;;;;;;;;4937594;29;20038;-90
2021/10/06 15:57:07;;;;;;;6.25;2.13;;;;;;;;;;4936706;29;20456;-92
2021/10/06 15:59:33;;;;;;;6.20;1.95;;;;;;;;;;4937054;29;20035;-91
2021/10/06 16:01:59;;;;;;;4.05;1.30;;;;;;;;;;4918966;29;20031;-88
2021/10/06 16:07:28;;;;;;;5.22;1.63;;;;;;;;;;4974432;28;20085;-88
2021/10/06 16:09:54;;;;;;;4.70;1.17;;;;;;;;;;4959147;28;20035;-88
2021/10/06 16:12:19;;;;;;;3.35;0.93;;;;;;;;;;4944452;29;20066;-89
2021/10/06 16:14:45;;;;;;;4.70;0.90;;;;;;;;;;4937871;29;20027;-89
2021/10/06 16:17:11;;;;;;;2.90;1.00;;;;;;;;;;4936384;29;20030;-89
2021/10/06 16:19:39;;;;;;;3.50;1.00;;;;;;;;;;4933993;29;20034;-90
2021/10/06 16:22:05;;;;;;;4.70;1.08;;;;;;;;;;4953685;29;20106;-90
2021/10/06 16:24:30;;;;;;;3.28;0.80;;;;;;;;;;4930252;29;20119;-91
2021/10/06 16:26:56;;;;;;;6.45;0.93;;;;;;;;;;4936124;29;20546;-90
2021/10/06 20:45:52;;;;;;;7.53;3.20;;;;;;;;;;5344792;23;20078;-82
2021/10/06 20:48:17;;;;;;;5.30;3.20;;;;;;;;;;4954750;28;20031;-82
2021/10/06 20:50:43;;;;;;;8.02;3.45;;;;;;;;;;4950922;28;20038;-81
2021/10/06 20:53:09;;;;;;;6.72;3.42;;;;;;;;;;4954108;29;20035;-82
2021/10/06 20:55:35;;;;;;;7.00;3.20;;;;;;;;;;4937143;29;20484;-81
2021/10/06 20:58:00;;;;;;;7.20;3.13;;;;;;;;;;4954716;29;20447;-81
2021/10/06 21:00:28;;;;;;;5.53;3.42;;;;;;;;;;4954478;29;20039;-81
2021/10/06 21:03:01;;;;;;;7.70;3.60;;;;;;;;;;4954320;29;20042;-81
2021/10/06 21:05:30;;;;;;;7.10;3.70;;;;;;;;;;4955271;29;20055;-82
2021/10/06 21:07:55;;;;;;;7.60;2.88;;;;;;;;;;4955323;29;20562;-82
2021/10/06 21:10:22;;;;;;;5.22;2.75;;;;;;;;;;4955655;29;20027;-81
2021/10/06 21:12:47;;;;;;;8.35;2.97;;;;;;;;;;4938713;29;20468;-82
2021/10/06 21:15:13;;;;;;;6.32;2.88;;;;;;;;;;4938645;29;20054;-82
2021/10/06 21:17:38;;;;;;;7.63;3.13;;;;;;;;;;4955851;29;20039;-82
2021/10/06 21:20:05;;;;;;;8.82;3.05;;;;;;;;;;4937515;29;20387;-81
2021/10/06 21:22:30;;;;;;;7.18;2.60;;;;;;;;;;4937120;29;20031;-81
2021/10/06 21:24:57;;;;;;;4.90;2.30;;;;;;;;;;4937525;29;20043;-82
2021/10/06 21:27:22;;;;;;;7.82;2.50;;;;;;;;;;4954661;29;20079;-81
2021/10/06 21:29:49;;;;;;;5.20;2.88;;;;;;;;;;4939145;29;20065;-82
2021/10/06 21:32:15;;;;;;;4.45;2.50;;;;;;;;;;4957990;28;20042;-82
2021/10/06 21:34:41;;;;;;;5.90;2.35;;;;;;;;;;4958051;29;20055;-82
2021/10/06 21:37:07;;;;;;;5.78;2.42;;;;;;;;;;4958008;29;20054;-82
2021/10/06 21:39:32;;;;;;;5.15;2.25;;;;;;;;;;4940959;29;20055;-82
2021/10/06 21:41:58;;;;;;;5.78;2.65;;;;;;;;;;4940562;29;20035;-82
2021/10/06 21:44:23;;;;;;;6.65;2.72;;;;;;;;;;4958270;29;20154;-82
2021/10/06 21:46:49;;;;;;;5.05;3.70;;;;;;;;;;4940670;29;20130;-82
2021/10/06 21:49:14;;;;;;;9.35;4.18;;;;;;;;;;4958033;29;20038;-81
2021/10/06 21:51:41;;;;;;;10.52;4.30;;;;;;;;;;4941011;29;20023;-82
2021/10/06 21:54:06;;;;;;;7.60;4.18;;;;;;;;;;4957535;29;20027;-81
2021/10/06 21:56:32;;;;;;;8.23;4.20;;;;;;;;;;4924460;29;20035;-81
2021/10/06 21:58:59;;;;;;;8.10;4.50;;;;;;;;;;4940720;29;20059;-81
2021/10/06 22:01:24;;;;;;;7.97;4.68;;;;;;;;;;4957592;29;20086;-82
2021/10/06 22:03:50;;;;;;;7.75;4.70;;;;;;;;;;4940425;29;20031;-81
2021/10/06 22:06:16;;;;;;;9.15;4.22;;;;;;;;;;4957043;29;20023;-81
2021/10/06 22:08:42;;;;;;;6.53;4.00;;;;;;;;;;4940231;29;20034;-82
2021/10/06 22:11:07;;;;;;;8.48;4.20;;;;;;;;;;4957391;29;20487;-81
2021/10/06 22:13:33;;;;;;;9.70;3.85;;;;;;;;;;4957343;29;20034;-81
2021/10/06 22:16:00;;;;;;;9.27;4.00;;;;;;;;;;4957262;29;20027;-81
2021/10/06 22:18:26;;;;;;;10.20;4.43;;;;;;;;;;4956773;29;20028;-82
2021/10/06 22:20:52;;;;;;;8.40;3.80;;;;;;;;;;4956998;29;20065;-81
2021/10/06 22:23:18;;;;;;;7.57;4.03;;;;;;;;;;4956876;29;20081;-81
2021/10/06 22:25:44;;;;;;;8.95;4.43;;;;;;;;;;4939635;29;20030;-81
2021/10/06 22:28:12;;;;;;;8.80;4.20;;;;;;;;;;4939659;29;20034;-81
2021/10/06 22:30:38;;;;;;;11.27;4.57;;;;;;;;;;4939934;29;20024;-81
2021/10/06 22:33:03;;;;;;;11.63;4.90;;;;;;;;;;4939632;29;20030;-81
2021/10/06 22:35:29;;;;;;;5.72;3.97;;;;;;;;;;4956543;29;20031;-82
2021/10/06 22:37:55;;;;;;;9.60;4.85;;;;;;;;;;4957030;29;20031;-81
2021/10/06 22:40:21;;;;;;;10.20;4.18;;;;;;;;;;4956484;28;20558;-82
2021/10/06 22:42:46;;;;;;;8.32;4.40;;;;;;;;;;4956328;29;20044;-81
2021/10/06 22:45:12;;;;;;;10.43;4.13;;;;;;;;;;4939074;29;20488;-81
2021/10/06 22:47:38;;;;;;;7.10;4.32;;;;;;;;;;4956724;29;20039;-81
2021/10/06 22:50:06;;;;;;;8.38;4.20;;;;;;;;;;4956774;29;20031;-81
2021/10/06 22:52:32;;;;;;;9.32;4.28;;;;;;;;;;4956485;29;20026;-81
2021/10/06 22:54:57;;;;;;;7.75;3.75;;;;;;;;;;4939056;29;20031;-81
2021/10/06 22:57:23;;;;;;;7.38;3.90;;;;;;;;;;4939015;29;20431;-81
2021/10/06 22:59:48;;;;;;;6.35;3.80;;;;;;;;;;4956148;29;20388;-81
2021/10/06 23:02:14;;;;;;;6.20;3.67;;;;;;;;;;4956221;29;20072;-80
2021/10/06 23:04:39;;;;;;;7.30;3.80;;;;;;;;;;4955994;29;20019;-82
2021/10/06 23:07:04;;;;;;;7.10;4.00;;;;;;;;;;4956004;29;20019;-81
2021/10/06 23:09:30;;;;;;;7.15;4.00;;;;;;;;;;4956108;29;20030;-81
2021/10/06 23:11:55;;;;;;;5.47;3.90;;;;;;;;;;4938882;29;20019;-81
2021/10/06 23:14:21;;;;;;;7.45;3.63;;;;;;;;;;4938713;29;20041;-81
2021/10/06 23:16:46;;;;;;;8.48;4.13;;;;;;;;;;4956207;29;20443;-81
2021/10/06 23:19:12;;;;;;;11.35;3.38;;;;;;;;;;4955796;29;20110;-81
2021/10/06 23:21:37;;;;;;;8.70;3.40;;;;;;;;;;4955824;29;20026;-82
2021/10/06 23:24:03;;;;;;;7.70;3.63;;;;;;;;;;4955944;29;20027;-81
2021/10/06 23:26:28;;;;;;;6.68;3.53;;;;;;;;;;4938513;29;20038;-81
2021/10/06 23:28:54;;;;;;;15.55;4.03;;;;;;;;;;4938606;29;20024;-81
2021/10/06 23:31:19;;;;;;;7.10;3.55;;;;;;;;;;4955186;29;20076;-82
2021/10/06 23:33:45;;;;;;;7.45;3.38;;;;;;;;;;4955325;28;20035;-82
2021/10/06 23:36:11;;;;;;;6.53;3.80;;;;;;;;;;4955756;29;20031;-81
2021/10/06 23:38:37;;;;;;;7.40;3.42;;;;;;;;;;4922452;29;20041;-81
2021/10/06 23:41:02;;;;;;;5.25;3.08;;;;;;;;;;4938350;29;20030;-80
2021/10/06 23:43:28;;;;;;;6.93;3.30;;;;;;;;;;4937983;29;20029;-81
2021/10/06 23:45:53;;;;;;;7.25;3.55;;;;;;;;;;4954903;29;20054;-81
2021/10/06 23:48:19;;;;;;;6.22;3.33;;;;;;;;;;4954830;29;20062;-81
2021/10/06 23:50:44;;;;;;;7.35;3.40;;;;;;;;;;4938103;29;20047;-81
2021/10/06 23:53:10;;;;;;;5.05;2.90;;;;;;;;;;4955485;28;20403;-81
2021/10/06 23:55:35;;;;;;;6.22;3.03;;;;;;;;;;4955319;29;20058;-82
2021/10/06 23:58:05;;;;;;;9.15;3.30;;;;;;;;;;4938590;29;20507;-82
